Time;durP1;ratioP1;P1;durP2;ratioP2;P2;SDS_P1;SDS_P2;PMS_P1;PMS_P2;Temp;Humidity;BMP_temperature;BMP_pressure;BME280_temperature;BME280_humidity;BME280_pressure;Samples;Min_cycle;Max_cycle;Signal;HPM_P1;HPM_P2
2023/10/25 00:02:11;;;;;;;10.77;4.43;;;;;;;11.29;100.00;100064.78;5252810;28;20033;-88
2023/10/25 00:04:43;;;;;;;14.47;4.27;;;;;;;11.38;100.00;100045.69;5250453;28;20156;-88
2023/10/25 00:07:17;;;;;;;13.47;5.10;;;;;;;11.25;100.00;100045.81;5238634;28;20033;-88
2023/10/25 00:09:51;;;;;;;12.45;5.05;;;;;;;11.36;100.00;100044.16;5237530;28;20067;-88
2023/10/25 00:12:22;;;;;;;11.80;4.53;;;;;;;11.11;100.00;100031.13;5235653;28;20056;-88
2023/10/25 00:14:54;;;;;;;11.40;4.77;;;;;;;11.06;100.00;100021.94;5237807;28;20077;-89
2023/10/25 00:17:25;;;;;;;9.77;4.90;;;;;;;11.34;100.00;100083.59;5253194;28;20033;-91
2023/10/25 00:19:57;;;;;;;10.90;4.43;;;;;;;11.34;100.00;100080.16;5236435;28;20468;-89
2023/10/25 00:22:28;;;;;;;9.33;4.53;;;;;;;10.96;100.00;100022.63;5252509;28;20061;-85
2023/10/25 00:24:59;;;;;;;10.93;3.80;;;;;;;11.10;100.00;100060.88;5251417;28;20461;-85
2023/10/25 00:27:33;;;;;;;11.67;3.83;;;;;;;11.20;100.00;100054.97;5235162;28;20052;-86
2023/10/25 00:30:06;;;;;;;11.05;3.92;;;;;;;10.80;100.00;100024.72;5235952;28;20129;-88
2023/10/25 00:32:37;;;;;;;8.07;4.30;;;;;;;10.75;100.00;100001.50;5235923;28;20033;-87
2023/10/25 00:35:09;;;;;;;9.17;3.20;;;;;;;11.07;100.00;100062.91;5236170;28;20493;-86
2023/10/25 00:37:49;;;;;;;7.67;3.93;;;;;;;11.11;100.00;100027.66;5252520;28;20478;-86
2023/10/25 00:40:20;;;;;;;8.87;3.67;;;;;;;11.07;100.00;100076.84;5235955;28;20991;-87
2023/10/25 00:43:20;;;;;;;5.90;3.00;;;;;;;10.98;100.00;100036.44;5238028;28;20033;-91
2023/10/25 00:46:02;;;;;;;10.03;3.73;;;;;;;11.20;100.00;100054.97;5237408;28;20469;-85
2023/10/25 00:48:35;;;;;;;7.17;2.67;;;;;;;10.75;100.00;100020.66;5250322;28;20030;-85
2023/10/25 00:51:09;;;;;;;8.63;3.30;;;;;;;10.86;100.00;100024.25;5236154;28;20029;-87
2023/10/25 00:53:50;;;;;;;9.97;4.10;;;;;;;11.37;100.00;100079.91;5217842;28;20030;-86
2023/10/25 00:56:25;;;;;;;5.57;3.27;;;;;;;10.89;100.00;100032.72;5230695;28;20473;-86
2023/10/25 00:59:00;;;;;;;6.17;2.93;;;;;;;10.60;100.00;100003.44;5214031;28;20033;-87
2023/10/25 01:01:33;;;;;;;6.27;2.93;;;;;;;10.71;100.00;100028.84;5213965;28;20025;-87
2023/10/25 01:04:07;;;;;;;6.67;2.70;;;;;;;10.61;100.00;100013.00;5230097;28;20033;-87
2023/10/25 01:06:45;;;;;;;6.35;3.25;;;;;;;10.84;100.00;100002.59;5215109;28;20034;-87
2023/10/25 01:09:18;;;;;;;8.57;2.40;;;;;;;10.79;100.00;100007.34;5230479;28;20033;-87
2023/10/25 01:11:52;;;;;;;5.47;3.00;;;;;;;10.68;100.00;100003.75;5235501;28;20385;-88
2023/10/25 01:14:36;;;;;;;6.35;3.28;;;;;;;10.64;100.00;100008.38;5250336;28;20472;-87
2023/10/25 01:17:10;;;;;;;8.97;3.13;;;;;;;11.10;100.00;100055.66;5251120;28;20025;-87
2023/10/25 01:19:41;;;;;;;5.00;2.25;;;;;;;10.98;100.00;100035.59;5249143;28;20064;-87
2023/10/25 01:22:12;;;;;;;7.70;2.43;;;;;;;10.61;100.00;99992.84;5234628;28;20042;-87
2023/10/25 01:24:47;;;;;;;13.63;3.83;;;;;;;10.71;100.00;100011.38;5235416;28;20092;-87
2023/10/25 01:27:19;;;;;;;7.30;2.40;;;;;;;10.59;100.00;99989.53;5234148;28;20025;-85
2023/10/25 01:29:50;;;;;;;7.80;2.20;;;;;;;10.83;100.00;100000.91;5235772;28;20018;-85
2023/10/25 01:32:22;;;;;;;7.83;2.47;;;;;;;10.83;100.00;99993.91;5235512;28;20489;-84
2023/10/25 01:35:02;;;;;;;8.87;3.47;;;;;;;11.05;100.00;100015.84;5234221;28;20035;-84
2023/10/25 01:37:34;;;;;;;7.37;2.10;;;;;;;10.79;100.00;99984.59;5235216;28;20109;-85
2023/10/25 01:40:07;;;;;;;10.93;3.17;;;;;;;10.51;100.00;99944.75;5233542;28;20104;-84
2023/10/25 01:42:41;;;;;;;6.70;2.80;;;;;;;10.44;100.00;99938.28;5234614;28;20056;-85
2023/10/25 01:45:14;;;;;;;9.05;2.65;;;;;;;10.75;100.00;99954.34;5251575;28;20461;-84
2023/10/25 01:47:46;;;;;;;10.18;2.58;;;;;;;10.51;100.00;99945.59;5270775;28;20047;-87
2023/10/25 01:50:18;;;;;;;5.07;2.20;;;;;;;10.80;100.00;99965.31;5272168;28;20029;-87
2023/10/25 01:52:50;;;;;;;7.27;2.43;;;;;;;11.04;100.00;100008.94;5256428;28;20032;-87
2023/10/25 01:55:30;;;;;;;8.70;2.50;;;;;;;10.93;100.00;99983.56;5256919;28;20377;-88
2023/10/25 01:58:01;;;;;;;8.60;3.27;;;;;;;10.72;100.00;99954.56;5268584;28;20036;-88
2023/10/25 02:00:32;;;;;;;6.70;2.27;;;;;;;10.74;100.00;99935.19;5282448;28;20013;-87
2023/10/25 02:03:04;;;;;;;6.27;2.23;;;;;;;10.75;100.00;99938.66;5264383;28;20028;-86
2023/10/25 02:05:35;;;;;;;4.90;1.90;;;;;;;10.71;100.00;99929.34;5278443;28;20116;-87
2023/10/25 02:08:07;;;;;;;7.80;2.70;;;;;;;10.84;100.00;99953.66;5277603;28;20091;-88
2023/10/25 02:10:38;;;;;;;5.67;2.30;;;;;;;10.86;100.00;99943.91;5275249;28;20013;-87
2023/10/25 02:13:10;;;;;;;8.40;2.10;;;;;;;10.88;100.00;99930.69;5255626;28;20025;-87
2023/10/25 02:15:41;;;;;;;6.40;1.93;;;;;;;10.88;100.00;99957.72;5254794;28;20033;-88
2023/10/25 02:18:13;;;;;;;5.90;2.20;;;;;;;10.89;100.00;99954.13;5270220;28;20033;-88
2023/10/25 02:20:44;;;;;;;10.10;2.87;;;;;;;10.99;100.00;99949.06;5270452;28;20024;-88
2023/10/25 02:23:15;;;;;;;10.97;2.10;;;;;;;10.85;100.00;99925.69;5254583;28;20025;-88
2023/10/25 02:25:47;;;;;;;9.20;2.53;;;;;;;11.01;100.00;99952.38;5270907;28;20029;-88
2023/10/25 02:28:18;;;;;;;5.70;2.03;;;;;;;10.91;100.00;99919.97;5255108;28;20094;-88
2023/10/25 02:30:50;;;;;;;5.00;1.93;;;;;;;10.99;100.00;99915.00;5270884;28;20063;-88
2023/10/25 02:33:21;;;;;;;5.50;2.10;;;;;;;11.18;100.00;99957.28;5254825;28;20041;-88
2023/10/25 02:35:53;;;;;;;7.63;3.17;;;;;;;10.78;100.00;99899.13;5270148;28;20017;-87
2023/10/25 02:38:24;;;;;;;7.40;2.30;;;;;;;11.04;100.00;99927.72;5270857;28;20028;-87
2023/10/25 02:40:56;;;;;;;6.53;2.27;;;;;;;11.06;100.00;99912.72;5270659;28;20108;-88
2023/10/25 02:43:28;;;;;;;7.03;2.17;;;;;;;11.03;100.00;99927.84;5255086;28;20537;-88
2023/10/25 02:46:05;;;;;;;5.63;2.33;;;;;;;11.33;100.00;99948.22;5270458;28;20017;-87
2023/10/25 02:48:37;;;;;;;7.03;2.20;;;;;;;11.04;100.00;99922.50;5269409;28;20025;-87
2023/10/25 02:51:09;;;;;;;5.47;2.50;;;;;;;10.96;100.00;99896.06;5270809;28;20025;-88
2023/10/25 02:53:42;;;;;;;7.07;2.33;;;;;;;11.18;100.00;99920.59;5255565;28;20021;-87
2023/10/25 02:56:16;;;;;;;7.40;2.72;;;;;;;11.06;100.00;99904.03;5254999;28;20036;-87
2023/10/25 02:58:48;;;;;;;6.80;2.00;;;;;;;10.72;100.00;99853.28;5255365;28;20048;-86
2023/10/25 03:01:24;;;;;;;6.97;2.40;;;;;;;10.99;100.00;99890.56;5253624;28;20025;-87
2023/10/25 03:03:55;;;;;;;6.27;2.27;;;;;;;10.91;100.00;99898.19;5243577;28;20400;-87
2023/10/25 03:06:27;;;;;;;5.97;2.10;;;;;;;10.97;100.00;99879.38;5249944;28;20029;-85
2023/10/25 03:08:58;;;;;;;9.63;2.77;;;;;;;10.81;100.00;99856.13;5233940;28;20033;-87
2023/10/25 03:11:29;;;;;;;10.00;2.77;;;;;;;11.17;100.00;99892.72;5233423;28;20075;-86
2023/10/25 03:14:01;;;;;;;7.27;2.20;;;;;;;10.95;100.00;99850.66;5235807;28;20049;-87
2023/10/25 03:16:32;;;;;;;7.30;2.10;;;;;;;11.12;100.00;99870.31;5236983;28;20029;-88
2023/10/25 03:19:04;;;;;;;5.40;2.33;;;;;;;11.25;100.00;99895.56;5236244;28;20049;-88
2023/10/25 03:21:36;;;;;;;6.87;1.80;;;;;;;10.94;100.00;99838.53;5236448;28;20056;-87
2023/10/25 03:24:12;;;;;;;11.43;2.53;;;;;;;11.17;100.00;99858.66;5253154;28;20037;-86
2023/10/25 03:26:46;;;;;;;7.03;1.90;;;;;;;11.07;100.00;99834.94;5238060;28;20424;-87
2023/10/25 03:29:19;;;;;;;6.32;2.17;;;;;;;11.08;100.00;99836.63;5238217;28;20107;-87
2023/10/25 03:31:53;;;;;;;8.77;2.35;;;;;;;10.87;100.00;99817.19;5238129;28;20021;-87
2023/10/25 03:34:33;;;;;;;6.93;2.60;;;;;;;11.16;100.00;99826.34;5237100;28;20108;-85
2023/10/25 03:37:05;;;;;;;5.33;2.10;;;;;;;10.87;100.00;99826.88;5237340;28;20036;-85
2023/10/25 03:39:36;;;;;;;11.60;2.20;;;;;;;11.10;100.00;99861.72;5237559;28;20025;-85
2023/10/25 03:42:12;;;;;;;7.33;1.77;;;;;;;11.33;100.00;99871.34;5236500;28;20025;-85
2023/10/25 03:44:45;;;;;;;6.93;1.87;;;;;;;10.97;100.00;99834.84;5236418;28;20033;-85
2023/10/25 03:47:17;;;;;;;8.15;2.70;;;;;;;11.13;100.00;99851.03;5235298;28;20108;-85
2023/10/25 03:49:52;;;;;;;7.53;2.40;;;;;;;11.29;100.00;99855.06;5235260;28;20152;-85
2023/10/25 03:52:26;;;;;;;9.87;2.07;;;;;;;11.36;100.00;99879.81;5237372;28;20473;-86
2023/10/25 03:54:57;;;;;;;7.25;2.25;;;;;;;11.16;100.00;99836.84;5237196;28;20029;-86
2023/10/25 03:57:28;;;;;;;5.00;2.10;;;;;;;11.03;100.00;99797.66;5236184;28;20033;-86
2023/10/25 04:00:00;;;;;;;4.77;2.03;;;;;;;11.29;100.00;99843.75;5235303;28;20053;-85
2023/10/25 04:02:31;;;;;;;7.27;1.70;;;;;;;11.11;100.00;99818.03;5235805;28;20148;-87
2023/10/25 04:05:03;;;;;;;7.40;2.43;;;;;;;11.12;100.00;99817.91;5234862;28;20041;-84
2023/10/25 04:07:34;;;;;;;7.50;2.40;;;;;;;11.02;100.00;99811.72;5237189;28;20048;-86
2023/10/25 04:10:15;;;;;;;7.13;2.20;;;;;;;11.10;100.00;99788.38;5251444;28;20021;-85
2023/10/25 04:12:49;;;;;;;6.27;2.10;;;;;;;11.20;100.00;99829.56;5236164;28;20033;-85
2023/10/25 04:15:20;;;;;;;11.95;2.78;;;;;;;10.95;100.00;99784.34;5235164;28;20405;-85
2023/10/25 04:17:52;;;;;;;9.20;2.50;;;;;;;11.06;100.00;99807.91;5234674;28;20036;-85
2023/10/25 04:20:23;;;;;;;7.03;2.27;;;;;;;11.02;100.00;99798.63;5236606;28;20048;-86
2023/10/25 04:22:57;;;;;;;7.70;2.27;;;;;;;11.07;100.00;99799.09;5251343;28;20033;-85
2023/10/25 04:25:28;;;;;;;6.05;2.60;;;;;;;11.08;100.00;99813.84;5234499;28;20029;-85
2023/10/25 04:28:00;;;;;;;12.70;3.77;;;;;;;11.17;100.00;99814.09;5235929;28;20025;-85
2023/10/25 04:30:37;;;;;;;8.80;2.70;;;;;;;11.56;100.00;99851.19;5235872;28;20734;-85
2023/10/25 04:33:09;;;;;;;8.43;3.57;;;;;;;10.97;100.00;99772.78;5235948;28;20040;-87
2023/10/25 04:35:43;;;;;;;7.13;3.00;;;;;;;11.39;100.00;99844.69;5234480;28;20029;-89
2023/10/25 04:38:17;;;;;;;6.10;3.37;;;;;;;11.27;100.00;99809.78;5237249;28;20120;-85
2023/10/25 04:40:48;;;;;;;8.35;3.08;;;;;;;11.28;100.00;99810.59;5236182;28;20112;-83
2023/10/25 04:43:20;;;;;;;7.30;2.77;;;;;;;11.27;100.00;99803.72;5236863;28;20531;-85
2023/10/25 04:45:51;;;;;;;10.60;3.73;;;;;;;11.02;100.00;99772.41;5235756;28;20095;-84
2023/10/25 04:48:25;;;;;;;7.77;2.50;;;;;;;11.13;100.00;99782.91;5233491;28;20071;-85
2023/10/25 04:50:57;;;;;;;8.93;3.00;;;;;;;11.33;100.00;99798.81;5236258;28;20041;-84
2023/10/25 04:53:31;;;;;;;8.63;3.73;;;;;;;11.44;100.00;99820.72;5236589;28;20021;-84
2023/10/25 04:56:03;;;;;;;9.13;2.72;;;;;;;11.25;100.00;99785.50;5234771;28;20033;-83
2023/10/25 04:58:34;;;;;;;8.03;3.33;;;;;;;11.15;100.00;99776.69;5235864;28;20225;-83
2023/10/25 05:01:13;;;;;;;8.93;3.23;;;;;;;11.50;100.00;99788.78;5234875;28;20587;-83
2023/10/25 05:03:45;;;;;;;7.13;2.97;;;;;;;11.31;100.00;99782.38;5234844;28;20025;-83
2023/10/25 05:06:17;;;;;;;7.37;3.20;;;;;;;11.49;100.00;99802.81;5235042;28;20025;-83
2023/10/25 05:08:48;;;;;;;9.77;2.23;;;;;;;11.28;100.00;99753.78;5235137;28;20029;-83
2023/10/25 05:11:26;;;;;;;6.77;2.43;;;;;;;11.36;100.00;99759.22;5235736;28;20034;-82
2023/10/25 05:13:57;;;;;;;8.87;2.87;;;;;;;11.23;100.00;99755.94;5234797;28;20523;-82
2023/10/25 05:16:29;;;;;;;12.33;2.87;;;;;;;10.98;100.00;99724.66;5235064;28;20040;-81
2023/10/25 05:19:01;;;;;;;5.77;2.20;;;;;;;11.26;100.00;99758.31;5234453;28;20108;-82
2023/10/25 05:21:37;;;;;;;9.70;3.20;;;;;;;11.36;100.00;99754.00;5250039;28;20116;-82
2023/10/25 05:24:09;;;;;;;6.10;2.67;;;;;;;11.20;100.00;99732.59;5235012;28;20041;-82
2023/10/25 05:26:40;;;;;;;5.93;2.00;;;;;;;11.37;100.00;99763.53;5234816;28;20025;-82
2023/10/25 05:29:12;;;;;;;9.93;2.67;;;;;;;11.13;100.00;99729.66;5234268;28;20029;-81
2023/10/25 05:31:44;;;;;;;7.40;2.33;;;;;;;11.42;100.00;99765.78;5233658;28;20026;-82
2023/10/25 05:34:15;;;;;;;5.90;2.37;;;;;;;11.21;100.00;99729.03;5234129;28;20033;-81
2023/10/25 05:36:47;;;;;;;5.27;2.93;;;;;;;11.29;100.00;99736.28;5213078;28;20623;-82
2023/10/25 05:39:19;;;;;;;8.93;2.83;;;;;;;11.24;100.00;99720.94;5220177;28;20477;-83
2023/10/25 05:41:52;;;;;;;12.03;3.33;;;;;;;11.20;100.00;99714.25;5234807;28;20029;-82
2023/10/25 05:44:24;;;;;;;5.73;2.77;;;;;;;11.21;100.00;99726.41;5235210;28;20056;-81
2023/10/25 05:46:55;;;;;;;8.87;3.43;;;;;;;11.23;100.00;99720.09;5234165;28;20033;-82
2023/10/25 05:49:27;;;;;;;6.60;2.40;;;;;;;11.21;100.00;99711.50;5234936;28;20059;-82
2023/10/25 05:51:58;;;;;;;10.00;2.67;;;;;;;11.07;100.00;99693.44;5234694;28;20469;-83
2023/10/25 05:54:30;;;;;;;15.87;3.50;;;;;;;11.37;100.00;99720.75;5234655;28;20550;-83
2023/10/25 05:57:03;;;;;;;12.63;3.43;;;;;;;11.28;100.00;99706.59;5234408;28;20035;-83
2023/10/25 05:59:34;;;;;;;8.27;3.23;;;;;;;11.24;100.00;99692.91;5250523;28;20045;-83
2023/10/25 06:02:22;;;;;;;8.00;2.47;;;;;;;11.59;100.00;99735.56;5233927;28;20025;-83
2023/10/25 06:04:55;;;;;;;6.40;2.40;;;;;;;11.33;100.00;99717.53;5234269;28;20037;-83
2023/10/25 06:07:27;;;;;;;12.40;3.43;;;;;;;11.10;100.00;99704.50;5234941;28;20055;-81
2023/10/25 06:09:59;;;;;;;4.80;2.53;;;;;;;11.36;100.00;99732.22;5233921;28;20025;-81
2023/10/25 06:12:30;;;;;;;5.40;2.53;;;;;;;11.19;100.00;99707.38;5234310;28;20025;-82
2023/10/25 06:15:04;;;;;;;6.57;2.33;;;;;;;11.27;100.00;99717.22;5233557;28;20046;-82
2023/10/25 06:17:36;;;;;;;6.53;2.30;;;;;;;11.33;100.00;99725.41;5232875;28;20042;-82
2023/10/25 06:20:07;;;;;;;6.87;2.63;;;;;;;11.40;100.00;99724.94;5222784;28;20707;-83
2023/10/25 06:22:39;;;;;;;9.30;3.17;;;;;;;11.10;100.00;99674.88;5233794;28;20053;-83
2023/10/25 06:25:11;;;;;;;5.03;2.20;;;;;;;11.28;100.00;99697.91;5234338;28;20063;-83
2023/10/25 06:27:43;;;;;;;8.30;2.87;;;;;;;11.30;100.00;99678.47;5240017;28;20029;-83
2023/10/25 06:30:15;;;;;;;7.40;2.60;;;;;;;11.16;100.00;99656.03;5234124;28;20025;-83
2023/10/25 06:32:47;;;;;;;5.03;2.13;;;;;;;11.19;100.00;99668.06;5232618;28;20099;-87
2023/10/25 06:35:18;;;;;;;10.57;2.60;;;;;;;11.45;100.00;99705.22;5233888;28;20061;-87
2023/10/25 06:37:50;;;;;;;8.10;2.27;;;;;;;11.08;100.00;99632.25;5234272;28;20059;-85
2023/10/25 06:40:22;;;;;;;6.97;2.33;;;;;;;11.17;100.00;99656.88;5232982;28;20091;-86
2023/10/25 06:42:54;;;;;;;5.37;2.13;;;;;;;11.24;100.00;99660.66;5233902;28;20072;-86
2023/10/25 06:45:26;;;;;;;6.07;2.30;;;;;;;11.19;100.00;99657.56;5250652;28;20044;-86
2023/10/25 06:47:58;;;;;;;6.80;2.30;;;;;;;11.06;100.00;99618.44;5233990;28;20025;-85
2023/10/25 06:50:29;;;;;;;12.20;2.33;;;;;;;11.41;100.00;99672.38;5234861;28;21342;-85
2023/10/25 06:53:01;;;;;;;6.63;2.00;;;;;;;11.44;100.00;99650.28;5235961;28;20052;-84
2023/10/25 06:55:36;;;;;;;8.30;2.50;;;;;;;11.12;100.00;99613.50;5249079;28;20032;-84
2023/10/25 06:58:07;;;;;;;;;;;;;;;12.21;100.00;99669.28;5234616;28;20037;-84
2023/10/25 07:00:39;;;;;;;7.20;2.33;;;;;;;11.35;100.00;99610.78;5242200;28;19980;-84
2023/10/25 07:03:13;;;;;;;4.87;2.07;;;;;;;11.51;100.00;99627.84;5257898;28;20033;-84
2023/10/25 07:05:45;;;;;;;;;;;;;;;12.22;100.00;99651.72;5239789;28;20096;-84
2023/10/25 07:08:21;;;;;;;7.03;2.70;;;;;;;11.45;100.00;99612.66;5254053;28;19913;-84
2023/10/25 07:10:52;;;;;;;7.90;2.13;;;;;;;11.38;100.00;99607.91;5237412;28;20026;-86
2023/10/25 07:13:26;;;;;;;6.73;2.70;;;;;;;11.40;100.00;99609.59;5236006;28;20389;-87
2023/10/25 07:16:00;;;;;;;8.77;3.22;;;;;;;11.47;100.00;99626.44;5252147;28;20029;-86
2023/10/25 07:18:34;;;;;;;12.98;3.88;;;;;;;11.33;100.00;99588.25;5237176;28;20556;-86
2023/10/25 07:21:08;;;;;;;8.38;2.17;;;;;;;11.40;100.00;99602.53;5237252;28;20373;-87
2023/10/25 07:23:40;;;;;;;6.43;2.90;;;;;;;11.37;100.00;99632.47;5237700;28;20473;-86
2023/10/25 07:26:11;;;;;;;5.77;2.40;;;;;;;11.32;100.00;99616.28;5237069;28;20036;-87
2023/10/25 07:28:42;;;;;;;4.60;2.20;;;;;;;11.23;100.00;99598.69;5235597;28;20029;-87
2023/10/25 07:31:15;;;;;;;8.57;3.23;;;;;;;11.34;100.00;99613.53;5237606;28;20471;-88
2023/10/25 07:33:46;;;;;;;7.60;2.23;;;;;;;11.45;100.00;99628.38;5236884;28;20094;-88
2023/10/25 07:36:18;;;;;;;9.93;2.70;;;;;;;11.41;100.00;99579.78;5237069;28;20029;-89
2023/10/25 07:38:49;;;;;;;6.70;2.60;;;;;;;11.29;100.00;99592.13;5236228;28;20061;-88
2023/10/25 07:41:20;;;;;;;5.43;2.67;;;;;;;11.43;100.00;99596.22;5238313;28;20017;-90
2023/10/25 07:43:52;;;;;;;7.10;2.60;;;;;;;11.41;100.00;99590.25;5224570;28;20042;-90
2023/10/25 07:46:38;;;;;;;5.10;1.97;;;;;;;11.63;100.00;99568.31;5232999;28;20026;-88
2023/10/25 07:49:10;;;;;;;8.73;2.20;;;;;;;11.35;100.00;99550.50;5232007;28;20022;-86
2023/10/25 07:51:41;;;;;;;4.00;1.90;;;;;;;11.35;100.00;99550.50;5245876;28;20021;-86
2023/10/25 07:54:13;;;;;;;8.53;3.53;;;;;;;11.68;100.00;99586.25;5236636;28;20029;-85
2023/10/25 07:56:44;;;;;;;5.80;2.20;;;;;;;11.53;100.00;99556.94;5235037;28;20116;-85
2023/10/25 07:59:15;;;;;;;4.47;1.87;;;;;;;11.69;100.00;99561.72;5234440;28;20113;-85
2023/10/25 08:01:48;;;;;;;5.07;2.20;;;;;;;11.91;100.00;99575.59;5234221;28;20079;-86
2023/10/25 08:04:20;;;;;;;5.60;2.30;;;;;;;11.67;100.00;99542.66;5235192;28;20591;-85
2023/10/25 08:06:54;;;;;;;7.43;2.57;;;;;;;11.54;100.00;99512.22;5232898;28;20136;-85
2023/10/25 08:09:25;;;;;;;4.13;2.10;;;;;;;11.76;100.00;99547.13;5234640;28;20540;-85
2023/10/25 08:11:57;;;;;;;9.47;2.43;;;;;;;11.77;100.00;99553.16;5251017;28;20116;-86
2023/10/25 08:14:28;;;;;;;6.13;2.20;;;;;;;11.61;100.00;99508.13;5234904;28;20050;-85
2023/10/25 08:17:00;;;;;;;7.47;2.73;;;;;;;11.60;100.00;99490.75;5238502;28;20038;-85
2023/10/25 08:19:31;;;;;;;6.73;2.53;;;;;;;11.79;100.00;99514.53;5214146;28;20028;-86
2023/10/25 08:22:05;;;;;;;6.77;2.30;;;;;;;11.87;100.00;99522.56;5232111;28;20029;-86
2023/10/25 08:24:46;;;;;;;6.35;2.00;;;;;;;12.20;100.00;99535.53;5251965;28;20120;-87
2023/10/25 08:27:19;;;;;;;5.40;2.40;;;;;;;12.04;100.00;99528.97;5234105;28;20055;-86
2023/10/25 08:29:51;;;;;;;5.30;2.23;;;;;;;12.13;100.00;99537.03;5232847;28;20031;-85
2023/10/25 08:32:23;;;;;;;10.17;2.53;;;;;;;11.94;100.00;99514.97;5214627;28;20030;-85
2023/10/25 08:35:01;;;;;;;5.33;2.47;;;;;;;11.99;100.00;99499.66;5219636;28;20079;-85
2023/10/25 08:37:32;;;;;;;7.53;2.47;;;;;;;11.90;100.00;99498.69;5235479;28;20027;-84
2023/10/25 08:40:11;;;;;;;6.03;2.90;;;;;;;12.02;100.00;99494.16;5237067;28;20017;-89
2023/10/25 08:42:42;;;;;;;7.53;2.50;;;;;;;12.07;100.00;99510.34;5231408;28;20130;-88
2023/10/25 08:45:14;;;;;;;7.97;2.30;;;;;;;12.08;100.00;99501.50;5213524;28;20425;-90
2023/10/25 08:47:45;;;;;;;5.17;2.20;;;;;;;11.92;100.00;99469.72;5213984;28;20079;-85
2023/10/25 08:50:20;;;;;;;4.77;2.70;;;;;;;12.13;100.00;99510.78;5216364;28;20026;-87
2023/10/25 08:52:51;;;;;;;6.05;2.30;;;;;;;11.98;100.00;99474.41;5234828;28;20025;-85
2023/10/25 08:55:23;;;;;;;5.73;2.97;;;;;;;12.00;100.00;99472.47;5234673;28;20040;-84
2023/10/25 08:58:01;;;;;;;7.60;3.40;;;;;;;12.04;100.00;99460.75;5233698;28;20049;-84
2023/10/25 09:00:32;;;;;;;7.77;2.87;;;;;;;12.00;100.00;99458.53;5249068;28;20025;-84
2023/10/25 09:03:04;;;;;;;7.13;2.40;;;;;;;12.12;100.00;99472.38;5231805;28;20042;-83
2023/10/25 09:05:41;;;;;;;7.67;3.10;;;;;;;12.19;100.00;99460.38;5232203;28;20083;-83
2023/10/25 09:08:16;;;;;;;17.93;2.80;;;;;;;12.07;100.00;99439.50;5233547;28;20030;-83
2023/10/25 09:11:13;;;;;;;;;;;;;;;12.96;100.00;99485.91;5234377;28;20021;-82
2023/10/25 09:13:55;;;;;;;8.87;2.37;;;;;;;12.26;100.00;99443.13;5233367;28;20327;-83
2023/10/25 09:16:31;;;;;;;5.70;2.50;;;;;;;12.01;100.00;99436.59;5233544;28;20547;-85
2023/10/25 09:19:03;;;;;;;9.53;3.27;;;;;;;11.90;100.00;99427.03;5232162;28;20157;-85
2023/10/25 09:21:35;;;;;;;6.57;2.20;;;;;;;11.95;100.00;99424.81;5233143;28;20025;-87
2023/10/25 09:24:09;;;;;;;5.07;2.37;;;;;;;12.09;100.00;99431.50;5232555;28;20029;-86
2023/10/25 09:26:40;;;;;;;5.70;2.70;;;;;;;11.98;100.00;99427.19;5232023;28;20120;-85
2023/10/25 09:29:13;;;;;;;11.33;2.40;;;;;;;12.09;100.00;99458.59;5231726;28;20259;-85
2023/10/25 09:31:52;;;;;;;7.13;3.13;;;;;;;12.20;100.00;99451.56;5230804;28;20392;-87
2023/10/25 09:34:23;;;;;;;8.47;3.20;;;;;;;12.22;100.00;99468.81;5247955;28;20025;-86
2023/10/25 09:36:58;;;;;;;13.83;5.17;;;;;;;12.03;100.00;99424.97;5232792;28;20950;-86
2023/10/25 09:39:32;;;;;;;;;;;;;;;12.93;100.00;99449.41;5232344;28;20485;-86
2023/10/25 09:42:10;;;;;;;10.43;3.20;;;;;;;12.21;100.00;99412.03;5233212;28;20011;-85
2023/10/25 09:44:50;;;;;;;7.60;2.97;;;;;;;12.12;100.00;99419.88;5231839;28;20029;-83
2023/10/25 09:47:31;;;;;;;12.40;3.90;;;;;;;12.30;100.00;99423.50;5233140;28;20031;-84
2023/10/25 09:50:32;;;;;;;7.27;2.50;;;;;;;12.04;100.00;99395.16;5231889;28;20087;-84
2023/10/25 09:53:17;;;;;;;8.63;4.00;;;;;;;11.99;100.00;99355.34;5227963;28;20403;-81
2023/10/25 09:55:54;;;;;;;8.07;3.60;;;;;;;12.13;100.00;99411.06;5229467;28;20026;-81
2023/10/25 09:58:30;;;;;;;8.13;4.20;;;;;;;12.12;100.00;99388.41;5219068;28;20025;-81
2023/10/25 10:01:03;;;;;;;13.03;4.00;;;;;;;11.95;100.00;99380.22;5246578;28;20020;-82
2023/10/25 10:03:44;;;;;;;9.63;3.87;;;;;;;12.02;100.00;99357.72;5232195;28;20033;-82
2023/10/25 10:06:39;;;;;;;8.30;4.23;;;;;;;12.43;100.00;99407.47;5228698;28;20022;-82
2023/10/25 10:09:35;;;;;;;8.00;4.45;;;;;;;12.34;100.00;99376.78;5228235;28;20095;-82
2023/10/25 10:12:08;;;;;;;7.87;3.70;;;;;;;11.96;100.00;99361.72;5227036;28;20036;-82
2023/10/25 10:14:39;;;;;;;6.37;4.40;;;;;;;11.92;100.00;99357.69;5228070;28;20451;-82
2023/10/25 10:17:14;;;;;;;10.53;4.30;;;;;;;12.12;100.00;99346.41;5227011;28;20076;-82
2023/10/25 10:19:48;;;;;;;6.30;3.57;;;;;;;12.22;100.00;99369.06;5228117;28;20030;-82
2023/10/25 10:22:19;;;;;;;6.60;4.25;;;;;;;11.83;100.00;99309.50;5231934;28;20126;-82
2023/10/25 10:25:00;;;;;;;7.60;4.40;;;;;;;11.94;100.00;99311.19;5235291;28;20136;-82
2023/10/25 10:27:40;;;;;;;10.17;4.67;;;;;;;12.55;100.00;99352.97;5234797;28;20057;-82
2023/10/25 10:30:30;;;;;;;9.53;4.40;;;;;;;12.52;100.00;99347.19;5215445;28;20104;-83
2023/10/25 10:33:02;;;;;;;14.40;5.23;;;;;;;11.88;100.00;99292.53;5212254;28;20030;-83
2023/10/25 10:35:33;;;;;;;8.67;3.73;;;;;;;11.86;100.00;99277.78;5213813;28;20222;-83
2023/10/25 10:38:05;;;;;;;11.10;3.97;;;;;;;11.82;100.00;99273.78;5218106;28;20389;-81
2023/10/25 10:40:37;;;;;;;8.67;4.43;;;;;;;12.01;100.00;99298.31;5235770;28;20080;-82
2023/10/25 10:43:09;;;;;;;8.40;4.00;;;;;;;12.07;100.00;99282.03;5235278;28;20033;-82
2023/10/25 10:45:44;;;;;;;13.33;4.67;;;;;;;11.95;100.00;99263.00;5251436;28;20033;-82
2023/10/25 10:48:34;;;;;;;7.20;4.57;;;;;;;12.15;100.00;99256.94;5235234;28;20017;-81
2023/10/25 10:51:06;;;;;;;6.20;4.50;;;;;;;11.90;100.00;99253.88;5225209;28;20028;-82
2023/10/25 10:53:38;;;;;;;9.57;3.73;;;;;;;11.89;100.00;99258.31;5234500;28;20637;-84
2023/10/25 10:56:10;;;;;;;10.67;4.20;;;;;;;12.12;100.00;99276.41;5237588;28;20024;-84
2023/10/25 10:58:41;;;;;;;4.93;3.80;;;;;;;11.98;100.00;99246.13;5231104;28;20021;-83
2023/10/25 11:01:13;;;;;;;6.37;3.90;;;;;;;11.87;100.00;99215.63;5246935;28;20014;-83
2023/10/25 11:03:44;;;;;;;6.67;3.70;;;;;;;12.14;100.00;99260.50;5229433;28;20030;-83
2023/10/25 11:06:21;;;;;;;6.47;4.37;;;;;;;12.06;100.00;99243.63;5231326;28;20662;-83
2023/10/25 11:08:52;;;;;;;6.00;4.20;;;;;;;12.25;100.00;99272.66;5231973;28;20439;-83
2023/10/25 11:11:24;;;;;;;14.37;8.40;;;;;;;12.04;100.00;99218.53;5246282;28;20018;-83
2023/10/25 11:13:55;;;;;;;10.43;7.07;;;;;;;11.89;100.00;99200.59;5215673;28;20485;-83
2023/10/25 11:16:28;;;;;;;9.47;5.47;;;;;;;12.28;100.00;99246.09;5224770;28;20505;-84
2023/10/25 11:19:07;;;;;;;6.33;3.87;;;;;;;12.23;100.00;99217.66;5230361;28;20032;-84
2023/10/25 11:21:38;;;;;;;6.97;4.17;;;;;;;11.95;100.00;99199.22;5231936;28;20049;-85
2023/10/25 11:24:12;;;;;;;7.03;3.83;;;;;;;12.00;100.00;99180.41;5229307;28;20346;-85
2023/10/25 11:26:43;;;;;;;5.80;3.43;;;;;;;12.35;100.00;99215.69;5222745;28;20025;-84
2023/10/25 11:29:15;;;;;;;6.90;3.70;;;;;;;12.22;100.00;99202.88;5230496;28;20283;-84
2023/10/25 11:31:50;;;;;;;7.50;3.60;;;;;;;12.13;100.00;99196.69;5228098;28;20010;-85
2023/10/25 11:34:22;;;;;;;7.63;3.80;;;;;;;12.26;100.00;99188.50;5229430;28;20036;-83
2023/10/25 11:36:53;;;;;;;9.30;4.00;;;;;;;12.30;100.00;99203.00;5214631;28;20029;-81
2023/10/25 11:39:25;;;;;;;5.87;4.23;;;;;;;12.22;100.00;99205.50;5234195;28;20021;-82
2023/10/25 11:41:58;;;;;;;6.63;3.87;;;;;;;12.10;100.00;99158.44;5231365;28;20021;-82
2023/10/25 11:44:30;;;;;;;9.43;3.47;;;;;;;12.14;100.00;99177.38;5246315;28;20032;-83
2023/10/25 11:47:03;;;;;;;7.87;4.13;;;;;;;12.11;100.00;99164.53;5230775;28;20018;-84
2023/10/25 11:49:35;;;;;;;7.83;4.07;;;;;;;12.37;100.00;99171.75;5231509;28;20469;-83
2023/10/25 11:52:07;;;;;;;8.10;3.87;;;;;;;12.33;100.00;99175.63;5231558;28;20082;-84
2023/10/25 11:54:38;;;;;;;5.90;4.10;;;;;;;12.31;100.00;99183.66;5228125;28;20030;-83